createdAt,value
2023-05-05T08:45:49.497Z,804.00
2023-05-05T08:46:47.105Z,804.00
2023-05-05T08:47:46.932Z,810.00
2023-05-05T08:54:24.924Z,1260.00
2023-05-05T08:55:23.612Z,1361.00
2023-05-05T08:56:23.693Z,568.00
2023-05-05T08:57:24.815Z,1046.00
2023-05-05T08:58:23.674Z,1423.00
2023-05-05T08:59:23.546Z,1428.00
2023-05-05T09:00:23.728Z,1417.00
2023-05-05T09:01:26.042Z,1400.00
2023-05-05T09:02:23.630Z,1428.00
2023-05-05T09:03:23.656Z,1434.00
2023-05-05T09:04:23.682Z,1451.00
2023-05-05T09:05:23.712Z,1451.00
2023-05-05T09:06:24.410Z,1456.00
2023-05-05T09:07:23.740Z,1445.00
2023-05-05T09:08:23.768Z,1445.00
2023-05-05T09:09:23.815Z,1456.00
2023-05-05T09:10:25.379Z,1445.00
2023-05-05T09:11:23.899Z,1423.00
2023-05-05T09:12:23.924Z,1434.00
2023-05-05T09:13:23.908Z,1428.00
2023-05-05T09:14:23.888Z,1417.00
2023-05-05T09:15:24.016Z,1434.00
2023-05-05T09:16:23.985Z,1423.00
2023-05-05T09:17:24.183Z,1423.00
2023-05-05T09:18:24.053Z,1293.00
2023-05-05T09:19:24.048Z,1366.00
2023-05-05T09:20:24.105Z,1406.00
2023-05-05T09:21:24.135Z,1411.00
2023-05-05T09:22:24.113Z,1395.00
2023-05-05T09:23:24.217Z,1383.00
2023-05-05T09:24:24.252Z,1361.00
2023-05-05T09:25:24.183Z,1355.00
2023-05-05T09:26:28.893Z,1350.00
2023-05-05T09:27:24.279Z,1378.00
2023-05-05T09:28:24.248Z,1378.00
2023-05-05T09:29:24.271Z,1372.00
2023-05-05T09:30:24.261Z,1378.00
2023-05-05T09:31:24.275Z,1366.00
2023-05-05T09:32:24.333Z,1372.00
2023-05-05T09:33:24.214Z,1378.00
2023-05-05T09:34:24.192Z,1383.00
2023-05-05T09:35:24.223Z,1378.00
2023-05-05T09:36:24.429Z,1400.00
2023-05-05T09:37:24.955Z,1378.00
2023-05-05T09:38:24.271Z,1372.00
2023-05-05T09:39:24.272Z,1400.00
2023-05-05T09:40:24.146Z,1406.00
2023-05-05T09:41:24.155Z,1411.00
2023-05-05T09:42:24.278Z,1423.00
2023-05-05T09:43:24.190Z,1417.00
2023-05-05T09:44:24.159Z,1333.00
2023-05-05T09:45:24.156Z,1378.00
2023-05-05T09:46:24.282Z,1389.00
2023-05-05T09:47:29.603Z,1395.00
2023-05-05T09:48:25.258Z,1395.00
2023-05-05T09:49:24.300Z,1372.00
2023-05-05T09:50:24.199Z,1355.00
2023-05-05T09:51:24.203Z,1260.00
2023-05-05T09:52:24.220Z,1237.00
2023-05-05T09:53:24.215Z,1265.00
2023-05-05T09:54:24.250Z,1226.00
2023-05-05T09:55:38.365Z,1321.00
2023-05-05T09:56:24.161Z,1372.00
2023-05-05T09:57:24.256Z,1383.00
2023-05-05T09:58:24.198Z,1372.00
2023-05-05T09:59:24.182Z,1395.00
2023-05-05T10:00:24.160Z,1383.00
2023-05-05T10:01:38.328Z,1383.00
2023-05-05T10:02:24.329Z,1366.00
2023-05-05T10:03:24.224Z,1389.00
2023-05-05T10:04:24.567Z,1417.00
2023-05-05T10:05:24.482Z,1445.00
2023-05-05T10:06:25.042Z,1451.00
2023-05-05T10:09:44.682Z,1440.00
2023-05-05T10:12:17.480Z,1333.00
2023-05-05T10:13:17.580Z,1310.00
2023-05-05T10:14:17.288Z,1327.00
2023-05-05T10:15:17.277Z,1321.00
2023-05-05T10:16:17.678Z,1299.00
2023-05-05T10:17:17.423Z,1288.00
2023-05-05T10:18:17.338Z,1271.00
2023-05-05T10:19:17.309Z,1265.00
2023-05-05T10:38:56.774Z,1186.00
2023-05-05T10:41:56.295Z,1175.00
2023-05-05T10:42:57.045Z,1170.00
2023-05-05T11:09:21.010Z,1091.00
2023-05-05T11:10:21.094Z,1080.00
2023-05-05T11:11:20.773Z,1125.00
2023-05-05T11:12:20.850Z,832.00
2023-05-05T11:13:20.958Z,871.00
2023-05-05T11:14:20.789Z,911.00
2023-05-05T11:15:20.806Z,1012.00
2023-05-05T11:16:20.842Z,1029.00
2023-05-05T11:17:20.808Z,995.00
2023-05-05T11:18:20.759Z,1001.00
2023-05-05T11:19:20.815Z,1023.00
2023-05-05T11:20:21.452Z,1001.00
2023-05-05T11:21:20.826Z,990.00
2023-05-05T11:22:20.736Z,984.00
2023-05-05T11:23:20.722Z,984.00
2023-05-05T11:24:20.772Z,961.00
2023-05-05T11:25:20.802Z,950.00
2023-05-05T11:26:20.703Z,956.00
2023-05-05T11:27:20.793Z,950.00
2023-05-05T11:28:20.692Z,956.00
2023-05-05T11:29:20.684Z,916.00
2023-05-05T11:30:20.686Z,911.00
2023-05-05T11:31:20.801Z,922.00
2023-05-05T11:32:20.673Z,945.00
2023-05-05T11:33:20.885Z,961.00
2023-05-05T11:34:20.791Z,973.00
2023-05-05T11:35:20.823Z,956.00
2023-05-05T11:36:20.913Z,871.00
2023-05-05T11:37:20.938Z,669.00
2023-05-05T11:38:20.918Z,568.00
2023-05-05T11:39:21.036Z,551.00
2023-05-05T11:40:21.106Z,540.00
2023-05-05T11:41:21.338Z,658.00
2023-05-05T11:42:21.086Z,551.00
2023-05-05T11:43:21.214Z,708.00
2023-05-05T11:44:21.180Z,663.00
2023-05-05T11:45:23.466Z,618.00
2023-05-05T11:46:21.245Z,579.00
2023-05-05T11:47:21.241Z,838.00
2023-05-05T11:48:21.353Z,810.00
2023-05-05T11:49:21.303Z,455.00
2023-05-05T11:50:21.343Z,573.00
2023-05-05T11:51:21.466Z,528.00
2023-05-05T11:52:21.392Z,641.00
2023-05-05T11:53:21.426Z,511.00
2023-05-05T11:54:21.472Z,495.00
2023-05-05T11:55:21.533Z,461.00
2023-05-05T11:56:22.024Z,405.00
2023-05-05T11:57:21.744Z,427.00
2023-05-05T11:58:21.906Z,405.00
2023-05-05T11:59:21.608Z,438.00
2023-05-05T12:00:21.643Z,438.00
2023-05-05T12:01:22.528Z,472.00
2023-05-05T12:02:21.721Z,466.00
2023-05-05T12:03:21.832Z,455.00
2023-05-05T12:04:22.507Z,461.00
2023-05-05T12:05:21.833Z,450.00
2023-05-05T12:06:21.866Z,455.00
2023-05-05T12:07:21.973Z,455.00
2023-05-05T12:08:22.072Z,427.00
2023-05-05T12:09:21.995Z,388.00
2023-05-05T12:10:22.005Z,399.00
2023-05-05T12:11:22.009Z,410.00
2023-05-05T12:12:22.103Z,337.00
2023-05-05T12:13:23.202Z,421.00
2023-05-05T12:14:22.038Z,393.00
2023-05-05T12:15:22.078Z,393.00
2023-05-05T12:16:22.149Z,337.00
2023-05-05T12:17:22.268Z,354.00
2023-05-05T12:18:22.247Z,371.00
2023-05-05T12:19:22.212Z,365.00
2023-05-05T12:20:22.269Z,320.00
2023-05-05T12:21:22.292Z,331.00
2023-05-05T12:22:22.273Z,326.00
2023-05-05T12:23:22.357Z,286.00
2023-05-05T12:24:22.318Z,303.00
2023-05-05T12:25:23.535Z,309.00
2023-05-05T12:26:22.308Z,292.00
2023-05-05T12:27:22.315Z,286.00
2023-05-05T12:49:45.105Z,253.00
2023-05-05T12:50:44.600Z,253.00
2023-05-05T12:51:45.289Z,247.00
2023-05-05T12:52:44.589Z,247.00
2023-05-05T12:53:44.596Z,253.00
2023-05-05T13:03:01.312Z,292.00
2023-05-05T13:04:01.365Z,270.00
2023-05-05T13:05:01.607Z,292.00
2023-05-05T13:06:01.365Z,292.00
2023-05-05T13:13:23.905Z,270.00
2023-05-05T13:14:23.577Z,275.00
2023-05-05T13:15:23.759Z,258.00
2023-05-05T13:16:23.840Z,264.00
2023-05-05T13:17:23.602Z,264.00
2023-05-05T13:18:23.584Z,264.00
2023-05-05T13:19:23.608Z,264.00
2023-05-05T13:20:23.640Z,258.00
2023-05-05T13:21:23.503Z,253.00
2023-05-05T13:22:23.508Z,241.00
2023-05-05T13:23:25.786Z,241.00
2023-05-05T13:24:34.451Z,236.00
2023-05-05T13:25:24.620Z,236.00
2023-05-05T13:26:23.496Z,230.00
2023-05-05T13:27:23.514Z,225.00
2023-05-05T13:28:23.471Z,219.00
2023-05-05T13:29:27.282Z,219.00
2023-05-05T13:30:24.507Z,225.00
2023-05-05T13:31:23.526Z,219.00
2023-05-05T13:32:23.631Z,213.00
2023-05-05T13:33:23.447Z,208.00
2023-05-05T13:34:23.476Z,202.00
2023-05-05T13:35:23.472Z,202.00
2023-05-05T13:36:23.516Z,202.00
2023-05-05T13:37:23.431Z,202.00
2023-05-05T13:38:23.428Z,202.00
2023-05-05T13:39:23.432Z,202.00
2023-05-05T13:40:25.773Z,208.00
2023-05-05T13:41:24.679Z,213.00
2023-05-05T13:42:23.541Z,219.00
2023-05-05T13:43:23.717Z,225.00
2023-05-05T13:44:23.739Z,225.00
2023-05-05T13:45:24.187Z,225.00
2023-05-05T13:46:24.698Z,225.00
2023-05-05T13:47:24.740Z,225.00
2023-05-05T13:48:23.756Z,219.00
2023-05-05T13:49:23.817Z,219.00
2023-05-05T13:50:23.808Z,213.00
2023-05-05T13:51:25.822Z,208.00
2023-05-05T13:52:23.918Z,202.00
2023-05-05T13:53:23.938Z,196.00
2023-05-05T13:54:23.999Z,191.00
2023-05-05T13:55:24.019Z,191.00
2023-05-05T13:56:24.009Z,191.00
2023-05-05T13:57:24.073Z,191.00
2023-05-05T13:58:24.124Z,191.00
2023-05-05T13:59:24.174Z,168.00
2023-05-05T14:00:24.083Z,163.00
2023-05-05T14:01:24.261Z,174.00
2023-05-05T14:02:24.854Z,168.00
2023-05-05T14:03:24.307Z,174.00
2023-05-05T14:04:24.495Z,185.00
2023-05-05T14:05:24.327Z,191.00
2023-05-05T14:06:25.248Z,191.00
2023-05-05T14:07:24.420Z,191.00
2023-05-05T14:08:24.433Z,191.00
2023-05-05T14:09:24.456Z,191.00
2023-05-05T14:10:25.213Z,191.00
2023-05-05T14:11:24.508Z,191.00
2023-05-05T14:12:25.185Z,185.00
2023-05-05T14:13:24.570Z,185.00
2023-05-05T14:14:24.588Z,191.00
2023-05-05T14:15:24.663Z,191.00
2023-05-05T14:16:24.698Z,191.00
2023-05-05T14:17:24.804Z,185.00
2023-05-05T14:18:24.820Z,180.00
2023-05-05T14:19:24.778Z,185.00
2023-05-05T14:20:24.848Z,196.00
2023-05-05T14:21:24.889Z,196.00
2023-05-05T14:22:24.902Z,196.00
2023-05-05T14:23:25.094Z,202.00
2023-05-05T14:24:25.029Z,202.00
2023-05-05T14:25:25.032Z,202.00
2023-05-05T14:26:25.044Z,208.00
2023-05-05T14:27:25.093Z,208.00
2023-05-05T14:28:25.206Z,213.00
2023-05-05T14:29:25.249Z,213.00
2023-05-05T14:30:25.216Z,213.00
2023-05-05T14:31:25.259Z,213.00
2023-05-05T14:32:25.385Z,219.00
2023-05-05T14:33:25.390Z,225.00
2023-05-05T14:34:25.349Z,225.00
2023-05-05T14:35:25.318Z,225.00
2023-05-05T14:36:25.384Z,219.00
2023-05-05T14:37:25.360Z,225.00
2023-05-05T14:38:25.394Z,225.00
2023-05-05T14:39:25.372Z,213.00
2023-05-05T14:40:25.530Z,213.00
2023-05-05T14:41:26.183Z,219.00
2023-05-05T14:42:25.478Z,219.00
2023-05-05T14:43:26.213Z,219.00
2023-05-05T14:44:25.412Z,213.00
2023-05-05T14:45:25.422Z,213.00
2023-05-05T14:46:25.577Z,219.00
2023-05-05T14:47:25.491Z,219.00
2023-05-05T14:48:25.488Z,219.00
2023-05-05T14:49:25.477Z,219.00
2023-05-05T14:50:25.751Z,219.00
2023-05-05T14:51:25.524Z,213.00
2023-05-05T14:52:25.569Z,219.00
2023-05-05T14:53:25.632Z,219.00
2023-05-05T14:54:28.670Z,219.00
2023-05-05T15:32:34.121Z,157.00
2023-05-05T15:33:33.506Z,157.00
2023-05-05T15:34:33.909Z,157.00
2023-05-05T15:35:34.838Z,157.00
2023-05-05T15:38:20.620Z,163.00
2023-05-05T15:39:20.128Z,163.00
2023-05-05T15:40:20.133Z,168.00
2023-05-05T15:41:20.107Z,168.00
2023-05-05T15:42:20.104Z,168.00
2023-05-05T15:43:20.222Z,174.00
2023-05-05T15:44:20.156Z,180.00
2023-05-05T15:45:20.063Z,180.00
2023-05-05T15:46:20.134Z,180.00
2023-05-05T15:47:20.142Z,208.00
2023-05-05T15:48:20.871Z,202.00
2023-05-05T15:49:20.059Z,185.00
2023-05-05T15:50:20.168Z,163.00
2023-05-05T15:51:20.776Z,157.00
2023-05-05T15:52:20.060Z,151.00
2023-05-05T15:53:20.058Z,146.00
2023-05-05T15:54:20.086Z,140.00
2023-05-05T15:55:20.022Z,129.00
2023-05-05T15:56:20.039Z,123.00
2023-05-05T15:57:19.989Z,118.00
2023-05-05T15:58:20.111Z,112.00
2023-05-05T15:59:20.063Z,112.00
2023-05-05T16:00:20.121Z,106.00
2023-05-05T16:01:20.273Z,106.00
2023-05-05T16:02:20.246Z,101.00
2023-05-05T16:03:20.495Z,101.00
2023-05-05T16:04:20.439Z,101.00
2023-05-05T16:05:22.711Z,101.00
2023-05-05T16:06:20.386Z,101.00
2023-05-05T16:07:20.370Z,101.00
2023-05-05T16:08:20.313Z,101.00
2023-05-05T16:09:20.334Z,101.00
2023-05-05T16:10:20.550Z,101.00
2023-05-05T16:11:22.402Z,101.00
2023-05-05T16:12:20.354Z,101.00
2023-05-05T16:13:20.343Z,101.00
2023-05-05T16:14:20.326Z,118.00
2023-05-05T16:15:20.271Z,123.00
2023-05-05T16:16:20.378Z,118.00
2023-05-05T16:17:22.369Z,106.00
2023-05-05T16:18:20.940Z,112.00
2023-05-05T16:19:20.564Z,112.00
2023-05-05T16:20:20.579Z,112.00
2023-05-05T16:21:20.695Z,112.00
2023-05-05T16:22:20.684Z,112.00
2023-05-05T16:31:19.417Z,95.00
2023-05-05T16:32:07.224Z,90.00
2023-05-05T16:33:07.257Z,84.00
2023-05-05T16:34:07.275Z,78.00
2023-05-05T16:35:07.574Z,78.00
2023-05-05T16:36:07.280Z,73.00
2023-05-05T16:37:07.303Z,67.00
2023-05-05T16:38:07.575Z,61.00
2023-05-05T16:39:07.189Z,61.00
2023-05-05T16:40:07.306Z,56.00
2023-05-05T16:41:07.259Z,50.00
2023-05-05T16:42:07.127Z,50.00
2023-05-05T16:56:20.928Z,50.00
2023-05-05T16:57:20.429Z,56.00
2023-05-05T16:58:20.418Z,56.00
2023-05-05T16:59:20.421Z,56.00
2023-05-05T17:00:20.430Z,56.00
2023-05-05T17:01:20.480Z,61.00
2023-05-05T17:02:20.444Z,61.00
2023-05-05T17:03:20.385Z,61.00
2023-05-05T17:04:20.362Z,56.00
2023-05-05T17:05:20.469Z,56.00
2023-05-05T17:06:20.457Z,56.00
2023-05-05T17:07:20.626Z,50.00
2023-05-05T17:08:21.396Z,45.00
2023-05-05T17:09:20.322Z,45.00
2023-05-05T17:10:20.374Z,45.00
2023-05-05T17:11:20.388Z,39.00
2023-05-05T17:12:20.422Z,39.00
2023-05-05T17:13:20.390Z,39.00
2023-05-05T17:14:20.333Z,33.00
2023-05-05T17:15:20.325Z,33.00
2023-05-05T17:16:20.360Z,33.00
2023-05-05T17:17:20.661Z,33.00
2023-05-05T17:18:20.430Z,28.00
2023-05-05T17:19:20.451Z,28.00
2023-05-05T17:20:20.498Z,28.00
2023-05-05T17:21:20.468Z,28.00
2023-05-05T17:22:20.675Z,28.00
2023-05-05T17:23:20.497Z,28.00
2023-05-05T17:24:20.583Z,28.00
2023-05-05T17:25:20.610Z,28.00
2023-05-05T17:26:20.694Z,28.00
2023-05-05T17:27:20.721Z,28.00
2023-05-05T17:28:20.791Z,28.00
2023-05-05T17:29:20.803Z,28.00
2023-05-05T17:30:20.828Z,28.00
2023-05-05T17:31:20.980Z,28.00
2023-05-05T17:32:20.943Z,28.00
2023-05-05T17:33:20.999Z,28.00
2023-05-05T17:34:20.976Z,28.00
2023-05-05T17:35:20.997Z,22.00
2023-05-05T17:36:21.073Z,22.00
2023-05-05T17:37:21.081Z,22.00
2023-05-05T17:38:21.129Z,22.00
2023-05-05T17:39:21.193Z,22.00
2023-05-05T17:40:21.229Z,16.00
2023-05-05T17:41:21.299Z,16.00
2023-05-05T17:42:21.312Z,16.00
2023-05-05T17:43:21.360Z,16.00
2023-05-05T17:44:21.531Z,16.00
2023-05-05T17:45:21.644Z,11.00
2023-05-05T17:46:21.668Z,11.00
2023-05-05T17:47:21.502Z,11.00
2023-05-05T17:48:21.514Z,11.00
2023-05-05T17:49:21.506Z,11.00
2023-05-05T17:50:21.421Z,11.00
2023-05-05T17:51:21.474Z,5.00
2023-05-05T17:52:21.485Z,5.00
2023-05-05T17:53:21.397Z,5.00
2023-05-05T18:05:28.950Z,5.00
2023-05-05T18:06:28.238Z,0.00
2023-05-05T18:07:28.147Z,0.00
2023-05-05T18:08:28.151Z,0.00
2023-05-05T18:09:28.162Z,0.00
2023-05-05T18:10:28.175Z,0.00
2023-05-05T18:11:28.178Z,0.00
2023-05-05T18:12:28.202Z,0.00
2023-05-05T18:13:28.234Z,0.00
2023-05-05T18:14:28.448Z,0.00
2023-05-05T18:15:28.212Z,0.00
2023-05-05T18:16:28.118Z,0.00
2023-05-05T18:17:28.134Z,0.00
2023-05-05T18:18:28.182Z,0.00
2023-05-05T18:19:28.070Z,0.00
2023-05-05T18:20:28.121Z,0.00
2023-05-05T18:21:28.233Z,0.00
2023-05-05T18:22:28.048Z,0.00
2023-05-05T18:23:28.070Z,0.00
2023-05-05T18:24:28.106Z,0.00
2023-05-05T18:25:28.055Z,0.00
2023-05-05T18:26:28.084Z,0.00
2023-05-05T18:27:28.086Z,0.00
2023-05-05T18:28:28.146Z,0.00
2023-05-05T18:29:28.202Z,0.00
2023-05-05T18:30:28.193Z,0.00
2023-05-05T18:31:28.283Z,0.00
2023-05-05T18:32:28.325Z,0.00
2023-05-05T18:33:28.357Z,0.00
2023-05-05T18:34:28.346Z,0.00
2023-05-05T18:35:28.358Z,0.00
2023-05-05T18:36:28.368Z,0.00
2023-05-05T18:37:28.494Z,0.00
2023-05-05T18:38:28.408Z,0.00
2023-05-05T18:39:28.490Z,0.00
2023-05-05T18:40:28.503Z,0.00
2023-05-05T18:41:28.501Z,0.00
2023-05-05T18:42:28.579Z,0.00
2023-05-05T18:43:28.513Z,0.00
2023-05-05T18:44:28.604Z,0.00
2023-05-05T18:45:28.626Z,0.00
2023-05-05T18:46:28.788Z,0.00
2023-05-05T18:47:28.728Z,0.00
2023-05-05T18:48:28.729Z,0.00
2023-05-05T18:49:31.147Z,0.00
2023-05-05T18:50:28.642Z,0.00
2023-05-05T18:51:28.764Z,0.00
2023-05-05T18:52:28.666Z,0.00
2023-05-05T18:53:28.690Z,0.00
2023-05-05T18:54:28.690Z,0.00
2023-05-05T18:55:28.683Z,0.00
2023-05-05T18:56:28.633Z,0.00
2023-05-05T18:57:29.363Z,0.00
2023-05-05T18:58:28.595Z,0.00
2023-05-05T18:59:28.620Z,0.00
2023-05-05T19:00:28.657Z,0.00
2023-05-05T19:01:28.616Z,0.00
2023-05-05T19:02:28.660Z,0.00
2023-05-05T19:03:28.634Z,0.00
2023-05-05T19:04:31.786Z,0.00
2023-05-05T19:05:28.566Z,0.00
2023-05-05T19:06:28.696Z,0.00
2023-05-05T19:07:35.441Z,0.00
2023-05-05T19:08:29.596Z,0.00
2023-05-05T19:09:28.682Z,0.00
2023-05-05T19:10:28.524Z,0.00
2023-05-05T19:11:28.576Z,0.00
2023-05-05T19:12:28.530Z,0.00
2023-05-05T19:13:28.515Z,0.00
2023-05-05T19:14:28.566Z,0.00
2023-05-05T19:15:28.523Z,0.00
2023-05-05T19:16:30.071Z,0.00
2023-05-05T19:17:28.526Z,0.00
2023-05-05T19:18:28.506Z,0.00
2023-05-05T19:19:28.466Z,0.00
2023-05-05T19:20:28.492Z,0.00
2023-05-05T19:21:28.519Z,0.00
2023-05-05T19:29:00.269Z,0.00
2023-05-05T19:29:47.280Z,0.00
2023-05-05T19:30:47.288Z,0.00
2023-05-05T19:31:47.492Z,0.00
2023-05-05T19:32:47.288Z,0.00
2023-05-05T19:33:47.256Z,0.00
2023-05-05T19:34:47.296Z,0.00
2023-05-05T19:35:47.264Z,0.00
2023-05-05T19:36:47.216Z,0.00
2023-05-05T19:37:47.399Z,0.00
2023-05-05T19:38:47.235Z,0.00
2023-05-05T19:39:47.591Z,0.00
2023-05-05T19:40:47.249Z,0.00
2023-05-05T19:41:47.201Z,0.00
2023-05-05T19:42:47.175Z,0.00
2023-05-05T19:43:47.244Z,0.00
2023-05-05T19:44:47.190Z,0.00
2023-05-05T20:27:16.353Z,0.00
2023-05-05T20:28:15.420Z,0.00
2023-05-05T20:29:15.419Z,0.00
2023-05-05T20:30:15.440Z,0.00
2023-05-05T20:31:15.445Z,0.00
2023-05-05T20:32:15.431Z,0.00
2023-05-05T20:33:15.460Z,0.00
2023-05-05T20:34:15.534Z,0.00
2023-05-05T20:35:15.393Z,0.00
2023-05-05T20:36:15.364Z,0.00
2023-05-05T20:37:15.377Z,0.00
2023-05-05T20:38:15.375Z,0.00
2023-05-05T20:39:15.372Z,0.00
2023-05-05T20:40:15.324Z,0.00
2023-05-05T20:41:15.324Z,0.00
2023-05-05T20:42:15.293Z,0.00
2023-05-05T20:43:15.477Z,0.00
2023-05-05T20:44:15.350Z,0.00
2023-05-05T20:45:15.303Z,0.00
2023-05-05T20:46:15.342Z,0.00
2023-05-05T20:47:15.307Z,0.00
2023-05-05T20:48:15.269Z,0.00
2023-05-05T20:49:15.285Z,0.00
2023-05-05T20:50:15.250Z,0.00
2023-05-05T20:51:15.298Z,0.00
2023-05-05T20:52:15.296Z,0.00
2023-05-05T20:53:15.374Z,0.00
2023-05-05T20:54:15.402Z,0.00
2023-05-05T20:55:15.429Z,0.00
2023-05-05T20:56:15.443Z,0.00
2023-05-05T20:57:15.453Z,0.00
2023-05-05T20:58:15.506Z,0.00
2023-05-05T20:59:15.581Z,0.00
2023-05-05T21:00:15.507Z,0.00
2023-05-05T21:01:15.620Z,0.00
2023-05-05T21:02:15.575Z,0.00
2023-05-05T21:03:15.695Z,0.00
2023-05-05T21:04:15.678Z,0.00
2023-05-05T21:05:15.690Z,0.00
2023-05-05T21:06:15.707Z,0.00
2023-05-05T21:07:15.767Z,0.00
2023-05-05T21:08:15.818Z,0.00
2023-05-05T21:09:15.840Z,0.00
2023-05-05T21:10:15.938Z,0.00
2023-05-05T21:11:15.937Z,0.00
2023-05-05T21:12:15.989Z,0.00
2023-05-05T21:13:16.051Z,0.00
2023-05-05T21:14:16.010Z,0.00
2023-05-05T21:15:16.152Z,0.00
2023-05-05T21:16:16.138Z,0.00
2023-05-05T21:17:16.044Z,0.00
2023-05-05T21:18:16.098Z,0.00
2023-05-05T21:19:16.083Z,0.00
2023-05-05T21:20:16.134Z,0.00
2023-05-05T21:21:16.112Z,0.00
2023-05-05T21:22:16.113Z,0.00
2023-05-05T21:23:16.173Z,0.00
2023-05-05T21:24:16.173Z,0.00
2023-05-05T21:25:16.233Z,0.00
2023-05-05T21:26:16.210Z,0.00
2023-05-05T21:27:16.249Z,0.00
2023-05-05T21:28:16.288Z,0.00
2023-05-05T21:29:16.365Z,0.00
2023-05-05T21:30:16.836Z,0.00
2023-05-05T21:32:16.365Z,0.00
2023-05-05T21:33:16.333Z,0.00
2023-05-05T21:34:16.346Z,0.00
2023-05-05T21:35:16.551Z,0.00
2023-05-05T22:09:54.616Z,0.00
2023-05-05T22:10:53.867Z,0.00
2023-05-05T22:50:10.389Z,0.00
2023-05-05T22:51:10.239Z,0.00
2023-05-05T22:52:10.221Z,0.00
2023-05-05T22:53:10.326Z,0.00
2023-05-05T22:54:10.175Z,0.00
2023-05-05T22:55:10.313Z,0.00
2023-05-05T22:56:10.225Z,0.00
2023-05-05T22:57:10.162Z,0.00
2023-05-05T22:58:10.164Z,0.00
2023-05-05T22:59:10.188Z,0.00
2023-05-05T23:00:10.183Z,0.00
2023-05-05T23:01:10.221Z,0.00
2023-05-05T23:02:10.118Z,0.00
2023-05-05T23:03:10.134Z,0.00
2023-05-05T23:04:10.192Z,0.00
2023-05-05T23:05:10.521Z,0.00
2023-05-05T23:06:10.117Z,0.00
2023-05-05T23:07:10.122Z,0.00
2023-05-05T23:08:10.178Z,0.00
2023-05-05T23:09:10.277Z,0.00
2023-05-05T23:10:11.151Z,0.00
2023-05-05T23:11:10.145Z,0.00
2023-05-05T23:12:10.157Z,0.00
2023-05-05T23:13:10.226Z,0.00
2023-05-05T23:14:10.256Z,0.00
2023-05-05T23:15:10.537Z,0.00
2023-05-05T23:16:10.353Z,0.00
2023-05-05T23:17:10.379Z,0.00
2023-05-05T23:18:10.341Z,0.00
2023-05-05T23:19:10.333Z,0.00
2023-05-05T23:20:10.425Z,0.00
2023-05-05T23:21:10.436Z,0.00
2023-05-05T23:22:10.557Z,0.00
2023-05-05T23:23:10.463Z,0.00
2023-05-05T23:24:10.513Z,0.00
2023-05-05T23:25:10.836Z,0.00
2023-05-05T23:26:10.653Z,0.00
2023-05-05T23:27:10.694Z,0.00
2023-05-05T23:28:10.757Z,0.00
2023-05-05T23:29:10.890Z,0.00
2023-05-05T23:30:10.837Z,0.00
2023-05-05T23:31:10.825Z,0.00
2023-05-05T23:32:10.885Z,0.00
2023-05-05T23:33:10.919Z,0.00
2023-05-05T23:34:11.009Z,0.00
2023-05-05T23:35:11.355Z,0.00
2023-05-05T23:36:11.069Z,0.00
2023-05-05T23:37:11.093Z,0.00
2023-05-05T23:38:11.156Z,0.00
2023-05-05T23:39:11.178Z,0.00
2023-05-05T23:40:11.163Z,0.00
2023-05-05T23:41:11.176Z,0.00
2023-05-05T23:42:11.264Z,0.00
2023-05-05T23:43:11.261Z,0.00
2023-05-05T23:44:11.457Z,0.00
2023-05-05T23:45:11.749Z,0.00
2023-05-05T23:46:11.467Z,0.00
2023-05-05T23:47:11.556Z,0.00
2023-05-05T23:48:11.569Z,0.00
2023-05-05T23:49:12.401Z,0.00
2023-05-05T23:50:11.634Z,0.00
